createdAt,value
2017-05-14T00:00:17.325Z,1010.79
2017-05-14T00:01:17.347Z,1010.81
2017-05-14T00:02:17.371Z,1010.84
2017-05-14T00:03:17.395Z,1010.79
2017-05-14T00:04:17.418Z,1010.84
2017-05-14T00:05:17.441Z,1010.79
2017-05-14T00:06:17.465Z,1010.79
2017-05-14T00:07:17.489Z,1010.8
2017-05-14T00:08:17.512Z,1010.77
2017-05-14T00:09:17.537Z,1010.77
2017-05-14T00:10:17.559Z,1010.74
2017-05-14T00:11:17.583Z,1010.79
2017-05-14T00:12:17.605Z,1010.73
2017-05-14T00:13:17.629Z,1010.73
2017-05-14T00:14:17.653Z,1010.76
2017-05-14T00:16:17.700Z,1010.76
2017-05-14T00:17:17.724Z,1010.76
2017-05-14T00:18:17.747Z,1010.79
2017-05-14T00:19:17.770Z,1010.78
2017-05-14T00:20:17.793Z,1010.8
2017-05-14T00:21:17.817Z,1010.79
2017-05-14T00:22:17.842Z,1010.81
2017-05-14T00:23:17.863Z,1010.79
2017-05-14T00:24:17.887Z,1010.8
2017-05-14T00:25:17.911Z,1010.8
2017-05-14T00:26:17.934Z,1010.8
2017-05-14T00:27:17.958Z,1010.81
2017-05-14T00:28:17.981Z,1010.83
2017-05-14T00:29:18.005Z,1010.8
2017-05-14T00:30:18.027Z,1010.81
2017-05-14T00:32:18.074Z,1010.82
2017-05-14T00:33:18.099Z,1010.81
2017-05-14T00:34:18.121Z,1010.85
2017-05-14T00:35:18.145Z,1010.83
2017-05-14T00:36:18.169Z,1010.77
2017-05-14T00:37:18.192Z,1010.74
2017-05-14T00:38:18.215Z,1010.72
2017-05-14T00:39:18.240Z,1010.77
2017-05-14T00:40:18.262Z,1010.75
2017-05-14T00:41:18.284Z,1010.78
2017-05-14T00:42:18.309Z,1010.8
2017-05-14T00:43:18.332Z,1010.75
2017-05-14T00:44:18.356Z,1010.79
2017-05-14T00:45:18.380Z,1010.77
2017-05-14T00:47:18.427Z,1010.77
2017-05-14T00:48:18.450Z,1010.78
2017-05-14T00:49:18.474Z,1010.77
2017-05-14T00:50:18.497Z,1010.79
2017-05-14T00:51:18.521Z,1010.79
2017-05-14T00:52:18.544Z,1010.84
2017-05-14T00:53:18.567Z,1010.87
2017-05-14T00:54:18.591Z,1010.86
2017-05-14T00:55:18.614Z,1010.9
2017-05-14T00:56:18.637Z,1010.86
2017-05-14T00:57:18.661Z,1010.83
2017-05-14T00:58:18.685Z,1010.84
2017-05-14T00:59:18.707Z,1010.84
2017-05-14T01:00:18.731Z,1010.87
2017-05-14T01:01:18.755Z,1010.85
2017-05-14T01:02:18.779Z,1010.86
2017-05-14T01:03:18.802Z,1010.85
2017-05-14T01:04:18.824Z,1010.84
2017-05-14T01:05:18.849Z,1010.86
2017-05-14T01:06:18.925Z,1010.89
2017-05-14T01:07:18.894Z,1010.9
2017-05-14T01:08:18.918Z,1010.89
2017-05-14T01:09:18.983Z,1010.88
2017-05-14T01:10:18.964Z,1010.91
2017-05-14T01:11:18.988Z,1010.95
2017-05-14T01:12:19.011Z,1010.95
2017-05-14T01:13:19.037Z,1010.95
2017-05-14T01:14:19.057Z,1010.96
2017-05-14T01:15:19.081Z,1010.98
2017-05-14T01:16:19.104Z,1010.94
2017-05-14T01:17:19.127Z,1010.96
2017-05-14T01:19:19.175Z,1010.93
2017-05-14T01:20:19.197Z,1010.95
2017-05-14T01:21:19.220Z,1010.93
2017-05-14T01:22:19.244Z,1011.02
2017-05-14T01:23:19.268Z,1011.01
2017-05-14T01:24:19.290Z,1010.98
2017-05-14T01:25:19.313Z,1010.99
2017-05-14T01:26:19.336Z,1010.98
2017-05-14T01:27:19.359Z,1011.01
2017-05-14T01:28:19.381Z,1011.07
2017-05-14T01:29:19.405Z,1011.09
2017-05-14T01:30:19.429Z,1011.08
2017-05-14T01:31:19.453Z,1011.1
2017-05-14T01:32:19.475Z,1011.13
2017-05-14T01:33:19.497Z,1011.13
2017-05-14T01:35:19.544Z,1011.19
2017-05-14T01:36:19.567Z,1011.18
2017-05-14T01:37:19.590Z,1011.22
2017-05-14T01:38:19.613Z,1011.26
2017-05-14T01:39:19.636Z,1011.26
2017-05-14T01:40:19.659Z,1011.28
2017-05-14T01:41:19.682Z,1011.26
2017-05-14T01:42:19.706Z,1011.23
2017-05-14T01:43:19.731Z,1011.23
2017-05-14T01:44:19.751Z,1011.28
2017-05-14T01:45:19.774Z,1011.26
2017-05-14T01:46:19.798Z,1011.22
2017-05-14T01:47:19.820Z,1011.26
2017-05-14T01:48:19.846Z,1011.23
2017-05-14T01:49:19.867Z,1011.22
2017-05-14T01:51:19.913Z,1011.24
2017-05-14T01:52:19.936Z,1011.23
2017-05-14T01:53:19.960Z,1011.23
2017-05-14T01:54:19.982Z,1011.22
2017-05-14T01:55:20.005Z,1011.22
2017-05-14T01:56:20.028Z,1011.24
2017-05-14T01:57:20.052Z,1011.18
2017-05-14T01:58:20.075Z,1011.15
2017-05-14T01:59:20.096Z,1011.17
2017-05-14T02:00:20.121Z,1011.16
2017-05-14T02:01:20.143Z,1011.19
2017-05-14T02:02:20.166Z,1011.19
2017-05-14T02:03:20.190Z,1011.17
2017-05-14T02:04:20.213Z,1011.2
2017-05-14T02:05:20.236Z,1011.19
2017-05-14T02:07:20.282Z,1011.17
2017-05-14T02:08:20.306Z,1011.17
2017-05-14T02:09:20.328Z,1011.19
2017-05-14T02:10:20.354Z,1011.23
2017-05-14T02:11:20.374Z,1011.22
2017-05-14T02:12:20.396Z,1011.24
2017-05-14T02:13:20.420Z,1011.22
2017-05-14T02:14:20.443Z,1011.23
2017-05-14T02:15:20.466Z,1011.24
2017-05-14T02:16:20.488Z,1011.22
2017-05-14T02:17:20.511Z,1011.23
2017-05-14T02:18:20.534Z,1011.25
2017-05-14T02:19:20.558Z,1011.28
2017-05-14T02:20:20.581Z,1011.24
2017-05-14T02:22:20.628Z,1011.28
2017-05-14T02:23:20.649Z,1011.26
2017-05-14T02:24:20.673Z,1011.29
2017-05-14T02:25:20.696Z,1011.31
2017-05-14T02:26:20.719Z,1011.29
2017-05-14T02:27:20.741Z,1011.28
2017-05-14T02:28:20.764Z,1011.27
2017-05-14T02:29:20.787Z,1011.28
2017-05-14T02:30:20.809Z,1011.24
2017-05-14T02:31:20.832Z,1011.28
2017-05-14T02:32:20.855Z,1011.24
2017-05-14T02:33:20.878Z,1011.29
2017-05-14T02:34:20.901Z,1011.34
2017-05-14T02:35:20.923Z,1011.33
2017-05-14T02:36:20.946Z,1011.4
2017-05-14T02:37:20.970Z,1011.45
2017-05-14T02:38:20.991Z,1011.48
2017-05-14T02:39:21.014Z,1011.54
2017-05-14T02:40:21.036Z,1011.54
2017-05-14T02:41:21.059Z,1011.57
2017-05-14T02:42:21.082Z,1011.59
2017-05-14T02:43:21.105Z,1011.58
2017-05-14T02:44:21.127Z,1011.6
2017-05-14T02:45:21.150Z,1011.63
2017-05-14T02:46:21.173Z,1011.68
2017-05-14T02:47:21.198Z,1011.7
2017-05-14T02:48:21.219Z,1011.72
2017-05-14T02:49:21.242Z,1011.72
2017-05-14T02:50:21.263Z,1011.7
2017-05-14T02:51:21.288Z,1011.72
2017-05-14T02:52:21.309Z,1011.73
2017-05-14T02:54:21.356Z,1011.73
2017-05-14T02:55:21.379Z,1011.72
2017-05-14T02:56:21.400Z,1011.75
2017-05-14T02:57:21.423Z,1011.73
2017-05-14T02:58:21.494Z,1011.76
2017-05-14T02:59:21.469Z,1011.82
2017-05-14T03:00:21.491Z,1011.81
2017-05-14T03:01:21.515Z,1011.81
2017-05-14T03:02:21.538Z,1011.82
2017-05-14T03:03:21.600Z,1011.79
2017-05-14T03:04:21.887Z,1011.79
2017-05-14T03:05:21.606Z,1011.8
2017-05-14T03:06:21.629Z,1011.84
2017-05-14T03:07:21.651Z,1011.81
2017-05-14T03:08:21.674Z,1011.81
2017-05-14T03:10:21.720Z,1011.82
2017-05-14T03:11:21.742Z,1011.84
2017-05-14T03:12:21.765Z,1011.91
2017-05-14T03:13:21.788Z,1011.88
2017-05-14T03:14:21.810Z,1011.9
2017-05-14T03:15:21.834Z,1011.92
2017-05-14T03:16:21.856Z,1011.87
2017-05-14T03:17:21.879Z,1011.93
2017-05-14T03:18:21.901Z,1011.93
2017-05-14T03:19:21.924Z,1011.95
2017-05-14T03:20:21.948Z,1011.97
2017-05-14T03:21:21.970Z,1011.97
2017-05-14T03:22:21.993Z,1011.96
2017-05-14T03:23:22.016Z,1012.01
2017-05-14T03:24:22.038Z,1012.01
2017-05-14T03:26:22.087Z,1012
2017-05-14T03:27:22.106Z,1012
2017-05-14T03:28:22.130Z,1011.99
2017-05-14T03:29:22.151Z,1011.99
2017-05-14T03:30:22.174Z,1012
2017-05-14T03:31:22.200Z,1012.03
2017-05-14T03:32:22.220Z,1012.04
2017-05-14T03:33:22.242Z,1012.04
2017-05-14T03:34:22.270Z,1012.04
2017-05-14T03:35:22.287Z,1012.09
2017-05-14T03:36:22.310Z,1012.09
2017-05-14T03:37:22.331Z,1012.13
2017-05-14T03:38:22.355Z,1012.14
2017-05-14T03:39:22.377Z,1012.13
2017-05-14T03:40:22.401Z,1012.16
2017-05-14T03:42:22.445Z,1012.2
2017-05-14T03:43:22.469Z,1012.2
2017-05-14T03:44:22.491Z,1012.23
2017-05-14T03:45:22.514Z,1012.22
2017-05-14T03:46:22.537Z,1012.24
2017-05-14T03:47:22.559Z,1012.25
2017-05-14T03:48:22.581Z,1012.25
2017-05-14T03:49:22.604Z,1012.25
2017-05-14T03:50:22.628Z,1012.27
2017-05-14T03:51:22.649Z,1012.28
2017-05-14T03:52:22.673Z,1012.24
2017-05-14T03:53:22.695Z,1012.26
2017-05-14T03:54:22.718Z,1012.25
2017-05-14T03:55:22.741Z,1012.23
2017-05-14T03:57:22.787Z,1012.23
2017-05-14T03:58:22.808Z,1012.27
2017-05-14T03:59:22.832Z,1012.29
2017-05-14T04:00:22.854Z,1012.29
2017-05-14T04:01:22.877Z,1012.31
2017-05-14T04:02:22.899Z,1012.32
2017-05-14T04:03:22.923Z,1012.31
2017-05-14T04:04:22.945Z,1012.34
2017-05-14T04:05:22.967Z,1012.37
2017-05-14T04:06:22.990Z,1012.39
2017-05-14T04:07:23.013Z,1012.4
2017-05-14T04:08:23.036Z,1012.41
2017-05-14T04:09:23.060Z,1012.47
2017-05-14T04:10:23.083Z,1012.45
2017-05-14T04:11:23.104Z,1012.5
2017-05-14T04:12:23.127Z,1012.49
2017-05-14T04:13:23.150Z,1012.53
2017-05-14T04:14:23.173Z,1012.53
2017-05-14T04:15:23.195Z,1012.54
2017-05-14T04:16:23.217Z,1012.5
2017-05-14T04:17:23.239Z,1012.56
2017-05-14T04:18:23.264Z,1012.56
2017-05-14T04:19:23.287Z,1012.54
2017-05-14T04:20:23.308Z,1012.54
2017-05-14T04:21:23.334Z,1012.55
2017-05-14T04:22:23.355Z,1012.56
2017-05-14T04:23:23.379Z,1012.55
2017-05-14T04:24:23.400Z,1012.56
2017-05-14T04:25:23.424Z,1012.51
2017-05-14T04:26:23.447Z,1012.59
2017-05-14T04:27:23.469Z,1012.64
2017-05-14T04:29:23.515Z,1012.65
2017-05-14T04:30:23.538Z,1012.68
2017-05-14T04:31:23.560Z,1012.68
2017-05-14T04:32:23.584Z,1012.68
2017-05-14T04:33:23.607Z,1012.78
2017-05-14T04:34:23.630Z,1012.77
2017-05-14T04:35:23.653Z,1012.81
2017-05-14T04:36:23.676Z,1012.86
2017-05-14T04:37:23.699Z,1012.8
2017-05-14T04:38:23.721Z,1012.85
2017-05-14T04:39:23.746Z,1012.86
2017-05-14T04:40:23.769Z,1012.87
2017-05-14T04:41:23.791Z,1012.87
2017-05-14T04:42:23.815Z,1012.91
2017-05-14T04:43:23.837Z,1012.9
2017-05-14T04:45:23.884Z,1012.94
2017-05-14T04:46:23.907Z,1012.92
2017-05-14T04:47:23.930Z,1012.98
2017-05-14T04:48:23.954Z,1012.99
2017-05-14T04:49:23.977Z,1012.98
2017-05-14T04:50:23.999Z,1013
2017-05-14T04:51:24.023Z,1013.03
2017-05-14T04:52:24.046Z,1013.07
2017-05-14T04:53:24.071Z,1013.06
2017-05-14T04:54:24.093Z,1013.08
2017-05-14T04:55:24.117Z,1013.1
2017-05-14T04:56:24.140Z,1013.07
2017-05-14T04:57:24.163Z,1013.12
2017-05-14T04:58:24.186Z,1013.12
2017-05-14T04:59:24.209Z,1013.1
2017-05-14T05:01:24.256Z,1013.11
2017-05-14T05:02:24.280Z,1013.14
2017-05-14T05:03:24.303Z,1013.14
2017-05-14T05:04:24.326Z,1013.19
2017-05-14T05:05:24.351Z,1013.17
2017-05-14T05:06:24.374Z,1013.15
2017-05-14T05:07:24.398Z,1013.14
2017-05-14T05:08:24.420Z,1013.17
2017-05-14T05:09:24.444Z,1013.18
2017-05-14T05:10:24.468Z,1013.22
2017-05-14T05:11:24.491Z,1013.17
2017-05-14T05:12:24.515Z,1013.19
2017-05-14T05:13:24.539Z,1013.23
2017-05-14T05:14:24.563Z,1013.2
2017-05-14T05:15:24.586Z,1013.22
2017-05-14T05:17:24.635Z,1013.25
2017-05-14T05:18:24.659Z,1013.22
2017-05-14T05:19:24.681Z,1013.19
2017-05-14T05:20:24.706Z,1013.22
2017-05-14T05:21:24.730Z,1013.21
2017-05-14T05:22:24.754Z,1013.24
2017-05-14T05:23:24.778Z,1013.23
2017-05-14T05:24:24.802Z,1013.27
2017-05-14T05:25:24.827Z,1013.32
2017-05-14T05:26:24.851Z,1013.27
2017-05-14T05:27:24.875Z,1013.26
2017-05-14T05:28:24.899Z,1013.34
2017-05-14T05:29:24.923Z,1013.31
2017-05-14T05:30:24.948Z,1013.38
2017-05-14T05:32:24.997Z,1013.41
2017-05-14T05:33:25.022Z,1013.42
2017-05-14T05:34:25.046Z,1013.46
2017-05-14T05:35:25.071Z,1013.46
2017-05-14T05:36:25.096Z,1013.46
2017-05-14T05:37:25.121Z,1013.45
2017-05-14T05:38:25.146Z,1013.48
2017-05-14T05:39:25.170Z,1013.51
2017-05-14T05:40:25.194Z,1013.48
2017-05-14T05:41:25.219Z,1013.6
2017-05-14T05:42:25.243Z,1013.44
2017-05-14T05:43:25.270Z,1013.62
2017-05-14T05:44:25.295Z,1013.46
2017-05-14T05:45:25.320Z,1013.63
2017-05-14T05:46:25.346Z,1013.51
2017-05-14T05:47:25.372Z,1013.49
2017-05-14T05:48:25.396Z,1013.63
2017-05-14T05:49:25.422Z,1013.61
2017-05-14T05:50:25.448Z,1013.76
2017-05-14T05:51:25.474Z,1013.59
2017-05-14T05:52:25.499Z,1013.81
2017-05-14T05:53:25.529Z,1013.69
2017-05-14T05:54:25.554Z,1013.9
2017-05-14T05:55:25.580Z,1013.94
2017-05-14T05:56:25.608Z,1013.92
2017-05-14T05:57:25.636Z,1014
2017-05-14T05:58:25.664Z,1013.98
2017-05-14T05:59:25.692Z,1014.07
2017-05-14T06:00:25.722Z,1014.13
2017-05-14T06:01:25.750Z,1014.22
2017-05-14T06:02:25.780Z,1014.31
2017-05-14T06:04:25.841Z,1014.4
2017-05-14T06:05:25.871Z,1014.43
2017-05-14T06:06:25.901Z,1014.42
2017-05-14T06:07:25.933Z,1014.48
2017-05-14T06:08:25.964Z,1014.51
2017-05-14T06:09:25.997Z,1014.55
2017-05-14T06:10:26.028Z,1014.56
2017-05-14T06:11:26.059Z,1014.62
2017-05-14T06:12:26.093Z,1014.6
2017-05-14T06:13:26.124Z,1014.63
2017-05-14T06:14:26.158Z,1014.65
2017-05-14T06:15:26.191Z,1014.56
2017-05-14T06:16:26.225Z,1014.59
2017-05-14T06:17:26.258Z,1014.6
2017-05-14T06:18:26.291Z,1014.6
2017-05-14T06:20:26.359Z,1014.66
2017-05-14T06:21:26.393Z,1014.68
2017-05-14T06:22:26.428Z,1014.66
2017-05-14T06:23:26.462Z,1014.64
2017-05-14T06:24:26.496Z,1014.63
2017-05-14T06:25:26.530Z,1014.7
2017-05-14T06:26:26.565Z,1014.69
2017-05-14T06:27:26.600Z,1014.69
2017-05-14T06:28:26.636Z,1014.7
2017-05-14T06:29:26.670Z,1014.74
2017-05-14T06:30:26.705Z,1014.81
2017-05-14T06:31:26.742Z,1014.75
2017-05-14T06:32:26.776Z,1014.8
2017-05-14T06:33:26.811Z,1014.84
2017-05-14T06:34:26.847Z,1014.89
2017-05-14T06:36:26.918Z,1015
2017-05-14T06:37:26.954Z,1014.98
2017-05-14T06:38:26.990Z,1015.07
2017-05-14T06:39:27.025Z,1015.14
2017-05-14T06:40:27.062Z,1015.15
2017-05-14T06:41:27.099Z,1015.16
2017-05-14T06:42:27.135Z,1015.2
2017-05-14T06:43:27.171Z,1015.16
2017-05-14T06:44:27.207Z,1015.25
2017-05-14T06:45:27.243Z,1015.23
2017-05-14T06:46:27.279Z,1015.38
2017-05-14T06:47:27.316Z,1015.37
2017-05-14T06:48:27.353Z,1015.4
2017-05-14T06:49:27.389Z,1015.54
2017-05-14T06:50:27.425Z,1015.67
2017-05-14T06:52:27.499Z,1015.77
2017-05-14T06:53:27.535Z,1015.8
2017-05-14T06:54:27.571Z,1015.86
2017-05-14T06:55:27.610Z,1015.94
2017-05-14T06:56:27.645Z,1015.96
2017-05-14T06:57:27.681Z,1015.91
2017-05-14T06:58:27.718Z,1015.9
2017-05-14T06:59:27.756Z,1016
2017-05-14T07:00:27.791Z,1016.01
2017-05-14T07:01:27.828Z,1016.04
2017-05-14T07:02:27.864Z,1016.03
2017-05-14T07:03:27.902Z,1015.99
2017-05-14T07:04:27.939Z,1016
2017-05-14T07:05:27.976Z,1016.04
2017-05-14T07:07:28.051Z,1016.01
2017-05-14T07:08:28.086Z,1016.01
2017-05-14T07:09:28.125Z,1015.97
2017-05-14T07:10:28.161Z,1015.94
2017-05-14T07:11:28.199Z,1015.88
2017-05-14T07:12:28.234Z,1015.83
2017-05-14T07:13:28.272Z,1015.78
2017-05-14T07:14:28.311Z,1015.82
2017-05-14T07:15:28.347Z,1015.78
2017-05-14T07:16:28.384Z,1015.88
2017-05-14T07:17:28.422Z,1015.82
2017-05-14T07:18:28.459Z,1015.82
2017-05-14T07:19:28.497Z,1015.85
2017-05-14T07:20:28.533Z,1015.8
2017-05-14T07:21:28.570Z,1015.79
2017-05-14T07:22:28.609Z,1015.73
2017-05-14T07:23:28.645Z,1015.74
2017-05-14T07:24:28.683Z,1015.7
2017-05-14T07:25:28.720Z,1015.69
2017-05-14T07:26:28.760Z,1015.66
2017-05-14T07:27:28.795Z,1015.63
2017-05-14T07:28:28.831Z,1015.64
2017-05-14T07:29:28.870Z,1015.58
2017-05-14T07:30:28.906Z,1015.54
2017-05-14T07:31:28.943Z,1015.52
2017-05-14T07:32:28.981Z,1015.52
2017-05-14T07:33:29.019Z,1015.46
2017-05-14T07:34:29.056Z,1015.44
2017-05-14T07:35:29.093Z,1015.42
2017-05-14T07:36:29.131Z,1015.35
2017-05-14T07:37:29.168Z,1015.38
2017-05-14T07:39:29.242Z,1015.32
2017-05-14T07:40:29.280Z,1015.37
2017-05-14T07:41:29.317Z,1015.38
2017-05-14T07:42:29.354Z,1015.38
2017-05-14T07:43:29.392Z,1015.39
2017-05-14T07:44:29.429Z,1015.36
2017-05-14T07:45:29.465Z,1015.32
2017-05-14T07:46:29.503Z,1015.21
2017-05-14T07:47:29.541Z,1015.1
2017-05-14T07:48:29.577Z,1015.11
2017-05-14T07:49:29.614Z,1015.07
2017-05-14T07:50:29.652Z,1015.1
2017-05-14T07:51:29.689Z,1015.1
2017-05-14T07:52:29.725Z,1015.1
2017-05-14T07:53:29.763Z,1015.09
2017-05-14T07:55:29.838Z,1014.91
2017-05-14T07:56:29.874Z,1014.93
2017-05-14T07:57:29.911Z,1014.98
2017-05-14T07:58:29.948Z,1014.99
2017-05-14T07:59:29.985Z,1015.01
2017-05-14T08:00:30.022Z,1015.05
2017-05-14T08:01:30.058Z,1015.02
2017-05-14T08:02:30.097Z,1015.06
2017-05-14T08:03:30.133Z,1015.01
2017-05-14T08:04:30.169Z,1015.06
2017-05-14T08:05:30.205Z,1015.03
2017-05-14T08:06:30.242Z,1015.06
2017-05-14T08:07:30.279Z,1015.1
2017-05-14T08:08:30.315Z,1015.09
2017-05-14T08:09:30.353Z,1015.2
2017-05-14T08:11:30.424Z,1015.18
2017-05-14T08:12:30.461Z,1015.23
2017-05-14T08:13:30.500Z,1015.23
2017-05-14T08:14:30.534Z,1015.18
2017-05-14T08:15:30.570Z,1015.16
2017-05-14T08:16:30.607Z,1015.11
2017-05-14T08:17:30.644Z,1015.08
2017-05-14T08:18:30.683Z,1015.04
2017-05-14T08:19:30.717Z,1015.17
2017-05-14T08:20:30.754Z,1015.35
2017-05-14T08:21:30.790Z,1015.39
2017-05-14T08:22:30.827Z,1015.32
2017-05-14T08:23:30.865Z,1015.31
2017-05-14T08:24:30.901Z,1015.25
2017-05-14T08:25:30.936Z,1015.21
2017-05-14T08:27:31.009Z,1015.22
2017-05-14T08:28:31.046Z,1015.31
2017-05-14T08:29:31.083Z,1015.34
2017-05-14T08:30:31.118Z,1015.3
2017-05-14T08:31:31.156Z,1015.42
2017-05-14T08:32:31.191Z,1015.4
2017-05-14T08:33:31.226Z,1015.38
2017-05-14T08:34:31.262Z,1015.41
2017-05-14T08:35:31.304Z,1015.32
2017-05-14T08:36:31.334Z,1015.3
2017-05-14T08:37:31.371Z,1015.33
2017-05-14T08:38:31.408Z,1015.27
2017-05-14T08:39:31.445Z,1015.06
2017-05-14T08:40:31.481Z,1015.02
2017-05-14T08:42:31.554Z,1015.21
2017-05-14T08:43:31.589Z,1015.26
2017-05-14T08:44:31.625Z,1015.18
2017-05-14T08:45:31.662Z,1015.14
2017-05-14T08:46:31.698Z,1015.09
2017-05-14T08:47:31.732Z,1015.09
2017-05-14T08:48:31.769Z,1015.19
2017-05-14T08:49:31.805Z,1015.17
2017-05-14T08:50:31.840Z,1015.16
2017-05-14T08:51:31.876Z,1015.14
2017-05-14T08:52:31.912Z,1015.06
2017-05-14T08:53:31.948Z,1015.08
2017-05-14T08:54:31.983Z,1015.12
2017-05-14T08:55:32.019Z,1015.06
2017-05-14T08:56:32.056Z,1015.06
2017-05-14T08:57:32.092Z,1015.05
2017-05-14T08:58:32.127Z,1015.06
2017-05-14T08:59:32.163Z,1015.01
2017-05-14T09:00:32.200Z,1015
2017-05-14T09:01:32.235Z,1015
2017-05-14T09:02:32.271Z,1014.99
2017-05-14T09:03:32.307Z,1014.98
2017-05-14T09:04:32.344Z,1014.99
2017-05-14T09:05:32.379Z,1015.03
2017-05-14T09:06:32.415Z,1015.01
2017-05-14T09:07:32.452Z,1015
2017-05-14T09:08:32.487Z,1014.99
2017-05-14T09:09:32.522Z,1015.03
2017-05-14T09:10:32.558Z,1014.97
2017-05-14T09:11:32.594Z,1014.94
2017-05-14T09:12:32.629Z,1014.97
2017-05-14T09:14:32.702Z,1015
2017-05-14T09:15:32.738Z,1015.03
2017-05-14T09:16:32.773Z,1015.1
2017-05-14T09:17:32.809Z,1015.1
2017-05-14T09:18:32.867Z,1015.08
2017-05-14T09:19:32.881Z,1015.07
2017-05-14T09:20:32.915Z,1015.07
2017-05-14T09:21:32.951Z,1015.07
2017-05-14T09:22:32.987Z,1015.05
2017-05-14T09:23:33.021Z,1015.09
2017-05-14T09:24:33.056Z,1015.07
2017-05-14T09:25:33.090Z,1015.09
2017-05-14T09:26:33.126Z,1015.14
2017-05-14T09:27:33.161Z,1015.13
2017-05-14T09:28:33.196Z,1015.09
2017-05-14T09:30:33.273Z,1015.15
2017-05-14T09:31:33.300Z,1015.16
2017-05-14T09:32:33.336Z,1015.15
2017-05-14T09:33:33.371Z,1015.19
2017-05-14T09:34:33.405Z,1015.18
2017-05-14T09:35:33.441Z,1015.13
2017-05-14T09:36:33.476Z,1015.16
2017-05-14T09:37:33.511Z,1015.14
2017-05-14T09:38:33.545Z,1015.17
2017-05-14T09:39:33.581Z,1015.2
2017-05-14T09:40:33.619Z,1015.17
2017-05-14T09:41:33.652Z,1015.19
2017-05-14T09:42:33.686Z,1015.21
2017-05-14T09:43:33.721Z,1015.23
2017-05-14T09:44:33.756Z,1015.21
2017-05-14T09:46:33.827Z,1015.21
2017-05-14T09:47:33.863Z,1015.26
2017-05-14T09:48:33.897Z,1015.23
2017-05-14T09:49:33.932Z,1015.22
2017-05-14T09:50:33.967Z,1015.22
2017-05-14T09:51:34.002Z,1015.2
2017-05-14T09:52:34.037Z,1015.2
2017-05-14T09:53:34.071Z,1015.21
2017-05-14T09:54:34.106Z,1015.19
2017-05-14T09:55:34.141Z,1015.18
2017-05-14T09:56:34.176Z,1015.18
2017-05-14T09:57:34.212Z,1015.19
2017-05-14T09:58:34.247Z,1015.2
2017-05-14T09:59:34.283Z,1015.19
2017-05-14T10:00:34.317Z,1015.23
2017-05-14T10:02:34.387Z,1015.24
2017-05-14T10:03:34.422Z,1015.27
2017-05-14T10:04:34.456Z,1015.25
2017-05-14T10:05:34.491Z,1015.23
2017-05-14T10:06:34.526Z,1015.24
2017-05-14T10:07:34.558Z,1015.19
2017-05-14T10:08:34.594Z,1015.23
2017-05-14T10:09:34.629Z,1015.23
2017-05-14T10:10:34.663Z,1015.24
2017-05-14T10:11:34.697Z,1015.22
2017-05-14T10:12:34.731Z,1015.25
2017-05-14T10:13:34.766Z,1015.24
2017-05-14T10:14:34.801Z,1015.2
2017-05-14T10:15:34.835Z,1015.23
2017-05-14T10:17:34.904Z,1015.26
2017-05-14T10:18:34.937Z,1015.26
2017-05-14T10:19:34.972Z,1015.25
2017-05-14T10:20:35.006Z,1015.22
2017-05-14T10:21:35.041Z,1015.24
2017-05-14T10:22:35.073Z,1015.28
2017-05-14T10:23:35.108Z,1015.25
2017-05-14T10:24:35.142Z,1015.26
2017-05-14T10:25:35.176Z,1015.2
2017-05-14T10:26:35.210Z,1015.19
2017-05-14T10:27:35.243Z,1015.14
2017-05-14T10:28:35.277Z,1015.17
2017-05-14T10:29:35.311Z,1015.17
2017-05-14T10:30:35.344Z,1015.17
2017-05-14T10:31:35.378Z,1015.15
2017-05-14T10:32:35.413Z,1015.18
2017-05-14T10:33:35.445Z,1015.1
2017-05-14T10:34:35.479Z,1015.16
2017-05-14T10:35:35.513Z,1015.18
2017-05-14T10:36:35.545Z,1015.16
2017-05-14T10:37:35.579Z,1015.16
2017-05-14T10:38:35.613Z,1015.13
2017-05-14T10:39:35.647Z,1015.12
2017-05-14T10:40:35.680Z,1015.11
2017-05-14T10:41:35.713Z,1015.14
2017-05-14T10:42:35.746Z,1015.16
2017-05-14T10:43:35.780Z,1015.21
2017-05-14T10:44:35.813Z,1015.19
2017-05-14T10:45:35.847Z,1015.26
2017-05-14T10:46:35.880Z,1015.25
2017-05-14T10:47:35.914Z,1015.23
2017-05-14T10:49:35.980Z,1015.21
2017-05-14T10:50:36.013Z,1015.2
2017-05-14T10:51:36.046Z,1015.24
2017-05-14T10:52:36.079Z,1015.22
2017-05-14T10:53:36.113Z,1015.2
2017-05-14T10:54:36.146Z,1015.18
2017-05-14T10:55:36.178Z,1015.2
2017-05-14T10:56:36.212Z,1015.18
2017-05-14T10:57:36.245Z,1015.16
2017-05-14T10:58:36.278Z,1015.14
2017-05-14T10:59:36.311Z,1015.13
2017-05-14T11:00:36.345Z,1015.13
2017-05-14T11:01:36.377Z,1015.11
2017-05-14T11:02:36.413Z,1015.18
2017-05-14T11:03:36.443Z,1015.16
2017-05-14T11:05:36.509Z,1015.15
2017-05-14T11:06:36.541Z,1015.15
2017-05-14T11:07:36.574Z,1015.16
2017-05-14T11:08:36.605Z,1015.17
2017-05-14T11:09:36.638Z,1015.17
2017-05-14T11:10:36.673Z,1015.16
2017-05-14T11:11:36.704Z,1015.12
2017-05-14T11:12:36.736Z,1015.19
2017-05-14T11:13:36.767Z,1015.21
2017-05-14T11:14:36.799Z,1015.16
2017-05-14T11:15:36.832Z,1015.19
2017-05-14T11:16:36.864Z,1015.19
2017-05-14T11:17:36.896Z,1015.19
2017-05-14T11:18:36.928Z,1015.22
2017-05-14T11:19:36.960Z,1015.29
2017-05-14T11:21:37.024Z,1015.19
2017-05-14T11:22:37.056Z,1015.22
2017-05-14T11:23:37.088Z,1015.2
2017-05-14T11:24:37.120Z,1015.21
2017-05-14T11:25:37.151Z,1015.22
2017-05-14T11:26:37.183Z,1015.18
2017-05-14T11:27:37.215Z,1015.26
2017-05-14T11:28:37.246Z,1015.22
2017-05-14T11:29:37.278Z,1015.21
2017-05-14T11:30:37.310Z,1015.19
2017-05-14T11:31:37.339Z,1015.21
2017-05-14T11:32:37.371Z,1015.23
2017-05-14T11:33:37.402Z,1015.22
2017-05-14T11:34:37.434Z,1015.21
2017-05-14T11:35:37.464Z,1015.22
2017-05-14T11:37:37.527Z,1015.2
2017-05-14T11:38:37.558Z,1015.29
2017-05-14T11:39:37.588Z,1015.3
2017-05-14T11:40:37.619Z,1015.29
2017-05-14T11:41:37.650Z,1015.32
2017-05-14T11:42:37.680Z,1015.3
2017-05-14T11:43:37.710Z,1015.32
2017-05-14T11:44:37.742Z,1015.32
2017-05-14T11:45:37.773Z,1015.37
2017-05-14T11:46:37.803Z,1015.33
2017-05-14T11:47:37.833Z,1015.29
2017-05-14T11:48:37.865Z,1015.35
2017-05-14T11:49:37.895Z,1015.34
2017-05-14T11:50:37.926Z,1015.35
2017-05-14T11:52:37.988Z,1015.44
2017-05-14T11:53:38.018Z,1015.33
2017-05-14T11:54:38.049Z,1015.33
2017-05-14T11:55:38.080Z,1015.33
2017-05-14T11:56:38.111Z,1015.35
2017-05-14T11:57:38.140Z,1015.35
2017-05-14T11:58:38.171Z,1015.33
2017-05-14T11:59:38.202Z,1015.3
2017-05-14T12:00:38.275Z,1015.38
2017-05-14T12:01:38.263Z,1015.32
2017-05-14T12:02:38.293Z,1015.32
2017-05-14T12:03:38.324Z,1015.34
2017-05-14T12:04:38.354Z,1015.31
2017-05-14T12:05:38.384Z,1015.34
2017-05-14T12:06:38.415Z,1015.34
2017-05-14T12:07:38.445Z,1015.32
2017-05-14T12:08:38.475Z,1015.34
2017-05-14T12:09:38.506Z,1015.31
2017-05-14T12:10:38.537Z,1015.34
2017-05-14T12:11:38.565Z,1015.36
2017-05-14T12:12:38.597Z,1015.39
2017-05-14T12:13:38.627Z,1015.35
2017-05-14T12:14:38.658Z,1015.42
2017-05-14T12:15:38.688Z,1015.41
2017-05-14T12:16:38.719Z,1015.41
2017-05-14T12:17:38.750Z,1015.43
2017-05-14T12:18:38.779Z,1015.43
2017-05-14T12:19:38.809Z,1015.4
2017-05-14T12:20:39.139Z,1015.4
2017-05-14T12:21:38.870Z,1015.49
2017-05-14T12:22:38.900Z,1015.45
2017-05-14T12:24:38.960Z,1015.48
2017-05-14T12:25:38.991Z,1015.5
2017-05-14T12:26:39.021Z,1015.56
2017-05-14T12:27:39.050Z,1015.49
2017-05-14T12:28:39.080Z,1015.52
2017-05-14T12:29:39.110Z,1015.53
2017-05-14T12:30:39.140Z,1015.52
2017-05-14T12:31:39.170Z,1015.56
2017-05-14T12:32:39.200Z,1015.55
2017-05-14T12:33:39.229Z,1015.57
2017-05-14T12:34:39.259Z,1015.6
2017-05-14T12:35:39.289Z,1015.54
2017-05-14T12:36:39.319Z,1015.54
2017-05-14T12:37:39.348Z,1015.58
2017-05-14T12:38:39.378Z,1015.57
2017-05-14T12:40:39.438Z,1015.56
2017-05-14T12:41:39.467Z,1015.56
2017-05-14T12:42:39.496Z,1015.54
2017-05-14T12:43:39.526Z,1015.58
2017-05-14T12:44:39.555Z,1015.63
2017-05-14T12:45:39.585Z,1015.6
2017-05-14T12:46:39.614Z,1015.63
2017-05-14T12:47:39.644Z,1015.66
2017-05-14T12:48:39.672Z,1015.67
2017-05-14T12:49:39.702Z,1015.68